sensor_id;sensor_type;location;lat;lon;timestamp;P1;durP1;ratioP1;P2;durP2;ratioP2
4434;SDS011;46552;52.150;8.428;2022-12-08T00:00:16;30.67;;;16.17;;
4434;SDS011;46552;52.150;8.428;2022-12-08T00:02:44;31.23;;;17.00;;
4434;SDS011;46552;52.150;8.428;2022-12-08T00:05:11;31.73;;;17.63;;
4434;SDS011;46552;52.150;8.428;2022-12-08T00:07:55;31.33;;;16.57;;
4434;SDS011;46552;52.150;8.428;2022-12-08T00:10:41;23.17;;;14.87;;
4434;SDS011;46552;52.150;8.428;2022-12-08T00:13:11;30.40;;;16.27;;
4434;SDS011;46552;52.150;8.428;2022-12-08T00:15:38;37.40;;;18.60;;
4434;SDS011;46552;52.150;8.428;2022-12-08T00:18:05;25.27;;;16.10;;
4434;SDS011;46552;52.150;8.428;2022-12-08T00:20:33;35.33;;;17.57;;
4434;SDS011;46552;52.150;8.428;2022-12-08T00:23:00;32.27;;;17.93;;
4434;SDS011;46552;52.150;8.428;2022-12-08T00:25:28;29.50;;;17.90;;
4434;SDS011;46552;52.150;8.428;2022-12-08T00:27:55;32.30;;;17.20;;
4434;SDS011;46552;52.150;8.428;2022-12-08T00:30:24;35.73;;;19.67;;
4434;SDS011;46552;52.150;8.428;2022-12-08T00:32:51;32.80;;;17.33;;
4434;SDS011;46552;52.150;8.428;2022-12-08T00:35:19;41.17;;;18.57;;
4434;SDS011;46552;52.150;8.428;2022-12-08T00:37:49;31.17;;;17.17;;
4434;SDS011;46552;52.150;8.428;2022-12-08T00:40:16;35.40;;;20.07;;
4434;SDS011;46552;52.150;8.428;2022-12-08T00:42:44;30.03;;;18.03;;
4434;SDS011;46552;52.150;8.428;2022-12-08T00:45:11;26.90;;;17.40;;
4434;SDS011;46552;52.150;8.428;2022-12-08T00:47:41;43.10;;;21.97;;
4434;SDS011;46552;52.150;8.428;2022-12-08T00:50:08;31.20;;;19.63;;
4434;SDS011;46552;52.150;8.428;2022-12-08T00:52:36;34.37;;;18.00;;
4434;SDS011;46552;52.150;8.428;2022-12-08T00:55:04;33.57;;;18.90;;
4434;SDS011;46552;52.150;8.428;2022-12-08T00:57:32;36.90;;;20.00;;
4434;SDS011;46552;52.150;8.428;2022-12-08T01:00:01;37.07;;;18.77;;
4434;SDS011;46552;52.150;8.428;2022-12-08T01:02:29;32.93;;;19.10;;
4434;SDS011;46552;52.150;8.428;2022-12-08T01:04:59;35.23;;;18.00;;
4434;SDS011;46552;52.150;8.428;2022-12-08T01:07:26;47.87;;;19.93;;
4434;SDS011;46552;52.150;8.428;2022-12-08T01:09:55;30.80;;;18.93;;
4434;SDS011;46552;52.150;8.428;2022-12-08T01:12:23;37.47;;;18.27;;
4434;SDS011;46552;52.150;8.428;2022-12-08T01:14:50;37.17;;;19.40;;
4434;SDS011;46552;52.150;8.428;2022-12-08T01:17:17;38.93;;;21.17;;
4434;SDS011;46552;52.150;8.428;2022-12-08T01:19:45;33.03;;;18.40;;
4434;SDS011;46552;52.150;8.428;2022-12-08T01:22:14;37.27;;;20.20;;
4434;SDS011;46552;52.150;8.428;2022-12-08T01:24:41;35.63;;;19.20;;
4434;SDS011;46552;52.150;8.428;2022-12-08T01:27:08;30.67;;;16.67;;
4434;SDS011;46552;52.150;8.428;2022-12-08T01:29:35;31.77;;;17.80;;
4434;SDS011;46552;52.150;8.428;2022-12-08T01:32:03;33.30;;;18.33;;
4434;SDS011;46552;52.150;8.428;2022-12-08T01:34:30;33.70;;;18.97;;
4434;SDS011;46552;52.150;8.428;2022-12-08T01:36:58;31.03;;;17.80;;
4434;SDS011;46552;52.150;8.428;2022-12-08T01:39:27;44.20;;;17.30;;
4434;SDS011;46552;52.150;8.428;2022-12-08T01:41:54;29.07;;;17.37;;
4434;SDS011;46552;52.150;8.428;2022-12-08T01:47:27;32.60;;;17.87;;
4434;SDS011;46552;52.150;8.428;2022-12-08T01:50:00;34.93;;;19.30;;
4434;SDS011;46552;52.150;8.428;2022-12-08T01:52:28;35.33;;;21.07;;
4434;SDS011;46552;52.150;8.428;2022-12-08T01:55:03;38.00;;;20.47;;
4434;SDS011;46552;52.150;8.428;2022-12-08T01:57:34;44.80;;;22.10;;
4434;SDS011;46552;52.150;8.428;2022-12-08T02:00:07;37.37;;;20.27;;
4434;SDS011;46552;52.150;8.428;2022-12-08T02:02:38;32.63;;;19.83;;
4434;SDS011;46552;52.150;8.428;2022-12-08T02:05:13;34.60;;;19.73;;
4434;SDS011;46552;52.150;8.428;2022-12-08T02:07:41;37.70;;;20.93;;
4434;SDS011;46552;52.150;8.428;2022-12-08T02:10:11;41.13;;;23.17;;
4434;SDS011;46552;52.150;8.428;2022-12-08T02:12:42;40.10;;;20.83;;
4434;SDS011;46552;52.150;8.428;2022-12-08T02:15:10;46.97;;;22.63;;
4434;SDS011;46552;52.150;8.428;2022-12-08T02:17:42;40.00;;;22.30;;
4434;SDS011;46552;52.150;8.428;2022-12-08T02:20:22;40.50;;;20.33;;
4434;SDS011;46552;52.150;8.428;2022-12-08T02:23:00;34.07;;;20.60;;
4434;SDS011;46552;52.150;8.428;2022-12-08T02:25:40;49.63;;;22.83;;
4434;SDS011;46552;52.150;8.428;2022-12-08T02:28:30;43.23;;;22.40;;
4434;SDS011;46552;52.150;8.428;2022-12-08T02:31:15;42.77;;;21.60;;
4434;SDS011;46552;52.150;8.428;2022-12-08T02:34:12;39.30;;;21.33;;
4434;SDS011;46552;52.150;8.428;2022-12-08T02:36:47;40.07;;;22.37;;
4434;SDS011;46552;52.150;8.428;2022-12-08T02:39:22;36.20;;;20.50;;
4434;SDS011;46552;52.150;8.428;2022-12-08T02:41:58;43.30;;;20.23;;
4434;SDS011;46552;52.150;8.428;2022-12-08T02:44:33;39.83;;;20.87;;
4434;SDS011;46552;52.150;8.428;2022-12-08T02:47:05;34.47;;;20.27;;
4434;SDS011;46552;52.150;8.428;2022-12-08T02:49:38;49.60;;;21.53;;
4434;SDS011;46552;52.150;8.428;2022-12-08T02:52:06;30.07;;;17.43;;
4434;SDS011;46552;52.150;8.428;2022-12-08T02:54:54;44.37;;;21.13;;
4434;SDS011;46552;52.150;8.428;2022-12-08T02:57:25;33.40;;;18.77;;
4434;SDS011;46552;52.150;8.428;2022-12-08T03:00:01;42.50;;;21.23;;
4434;SDS011;46552;52.150;8.428;2022-12-08T03:05:34;40.20;;;20.63;;
4434;SDS011;46552;52.150;8.428;2022-12-08T03:08:24;31.33;;;17.70;;
4434;SDS011;46552;52.150;8.428;2022-12-08T03:11:00;32.87;;;17.57;;
4434;SDS011;46552;52.150;8.428;2022-12-08T03:13:31;30.17;;;18.37;;
4434;SDS011;46552;52.150;8.428;2022-12-08T03:16:03;32.00;;;17.63;;
4434;SDS011;46552;52.150;8.428;2022-12-08T03:18:35;32.60;;;17.50;;
4434;SDS011;46552;52.150;8.428;2022-12-08T03:21:07;30.27;;;17.53;;
4434;SDS011;46552;52.150;8.428;2022-12-08T03:23:35;29.37;;;17.70;;
4434;SDS011;46552;52.150;8.428;2022-12-08T03:26:07;35.50;;;17.30;;
4434;SDS011;46552;52.150;8.428;2022-12-08T03:28:37;26.23;;;16.90;;
4434;SDS011;46552;52.150;8.428;2022-12-08T03:31:05;36.57;;;18.90;;
4434;SDS011;46552;52.150;8.428;2022-12-08T03:33:39;38.57;;;16.73;;
4434;SDS011;46552;52.150;8.428;2022-12-08T03:36:10;26.70;;;16.73;;
4434;SDS011;46552;52.150;8.428;2022-12-08T03:38:40;33.47;;;19.50;;
4434;SDS011;46552;52.150;8.428;2022-12-08T03:41:10;37.93;;;17.90;;
4434;SDS011;46552;52.150;8.428;2022-12-08T03:43:44;35.80;;;17.17;;
4434;SDS011;46552;52.150;8.428;2022-12-08T03:46:11;27.00;;;16.47;;
4434;SDS011;46552;52.150;8.428;2022-12-08T03:48:38;39.27;;;17.60;;
4434;SDS011;46552;52.150;8.428;2022-12-08T03:51:05;35.57;;;19.10;;
4434;SDS011;46552;52.150;8.428;2022-12-08T03:53:34;30.97;;;16.77;;
4434;SDS011;46552;52.150;8.428;2022-12-08T03:56:02;29.87;;;18.37;;
4434;SDS011;46552;52.150;8.428;2022-12-08T03:58:30;34.33;;;17.63;;
4434;SDS011;46552;52.150;8.428;2022-12-08T04:00:57;29.90;;;16.50;;
4434;SDS011;46552;52.150;8.428;2022-12-08T04:03:24;33.40;;;17.43;;
4434;SDS011;46552;52.150;8.428;2022-12-08T04:05:51;37.63;;;19.03;;
4434;SDS011;46552;52.150;8.428;2022-12-08T04:08:19;33.53;;;17.63;;
4434;SDS011;46552;52.150;8.428;2022-12-08T04:10:47;27.57;;;17.43;;
4434;SDS011;46552;52.150;8.428;2022-12-08T04:13:15;25.10;;;16.30;;
4434;SDS011;46552;52.150;8.428;2022-12-08T04:15:43;29.33;;;15.27;;
4434;SDS011;46552;52.150;8.428;2022-12-08T04:18:11;25.00;;;15.47;;
4434;SDS011;46552;52.150;8.428;2022-12-08T04:20:38;21.67;;;13.33;;
4434;SDS011;46552;52.150;8.428;2022-12-08T04:23:06;18.63;;;12.90;;
4434;SDS011;46552;52.150;8.428;2022-12-08T04:25:33;22.77;;;13.67;;
4434;SDS011;46552;52.150;8.428;2022-12-08T04:28:02;24.93;;;12.90;;
4434;SDS011;46552;52.150;8.428;2022-12-08T04:30:31;19.80;;;12.13;;
4434;SDS011;46552;52.150;8.428;2022-12-08T04:32:59;21.40;;;12.47;;
4434;SDS011;46552;52.150;8.428;2022-12-08T04:35:26;23.37;;;11.73;;
4434;SDS011;46552;52.150;8.428;2022-12-08T04:37:54;19.13;;;12.00;;
4434;SDS011;46552;52.150;8.428;2022-12-08T04:40:21;23.70;;;12.50;;
4434;SDS011;46552;52.150;8.428;2022-12-08T04:42:48;22.20;;;13.27;;
4434;SDS011;46552;52.150;8.428;2022-12-08T04:45:18;21.13;;;12.67;;
4434;SDS011;46552;52.150;8.428;2022-12-08T04:47:45;26.70;;;14.20;;
4434;SDS011;46552;52.150;8.428;2022-12-08T04:50:13;23.80;;;13.87;;
4434;SDS011;46552;52.150;8.428;2022-12-08T04:52:40;21.63;;;13.43;;
4434;SDS011;46552;52.150;8.428;2022-12-08T04:55:07;21.20;;;12.33;;
4434;SDS011;46552;52.150;8.428;2022-12-08T04:57:35;31.50;;;16.30;;
4434;SDS011;46552;52.150;8.428;2022-12-08T05:00:03;27.00;;;14.20;;
4434;SDS011;46552;52.150;8.428;2022-12-08T05:02:32;23.13;;;15.20;;
4434;SDS011;46552;52.150;8.428;2022-12-08T05:04:59;31.13;;;16.00;;
4434;SDS011;46552;52.150;8.428;2022-12-08T05:07:26;34.17;;;18.40;;
4434;SDS011;46552;52.150;8.428;2022-12-08T05:09:54;28.30;;;16.97;;
4434;SDS011;46552;52.150;8.428;2022-12-08T05:12:21;30.83;;;17.70;;
4434;SDS011;46552;52.150;8.428;2022-12-08T05:14:49;26.03;;;16.90;;
4434;SDS011;46552;52.150;8.428;2022-12-08T05:17:16;34.93;;;19.43;;
4434;SDS011;46552;52.150;8.428;2022-12-08T05:19:45;31.53;;;19.47;;
4434;SDS011;46552;52.150;8.428;2022-12-08T05:22:13;38.97;;;18.77;;
4434;SDS011;46552;52.150;8.428;2022-12-08T05:24:40;36.07;;;19.20;;
4434;SDS011;46552;52.150;8.428;2022-12-08T05:27:07;38.57;;;18.97;;
4434;SDS011;46552;52.150;8.428;2022-12-08T05:29:35;32.70;;;19.00;;
4434;SDS011;46552;52.150;8.428;2022-12-08T05:32:02;31.87;;;19.50;;
4434;SDS011;46552;52.150;8.428;2022-12-08T05:34:31;28.37;;;17.60;;
4434;SDS011;46552;52.150;8.428;2022-12-08T05:37:00;36.50;;;18.83;;
4434;SDS011;46552;52.150;8.428;2022-12-08T05:39:27;31.77;;;17.53;;
4434;SDS011;46552;52.150;8.428;2022-12-08T05:41:55;35.13;;;19.13;;
4434;SDS011;46552;52.150;8.428;2022-12-08T05:44:23;31.63;;;18.00;;
4434;SDS011;46552;52.150;8.428;2022-12-08T05:46:51;33.43;;;18.97;;
4434;SDS011;46552;52.150;8.428;2022-12-08T05:49:18;36.67;;;19.50;;
4434;SDS011;46552;52.150;8.428;2022-12-08T05:51:45;31.50;;;17.90;;
4434;SDS011;46552;52.150;8.428;2022-12-08T05:54:14;32.87;;;16.93;;
4434;SDS011;46552;52.150;8.428;2022-12-08T05:56:41;31.17;;;17.73;;
4434;SDS011;46552;52.150;8.428;2022-12-08T05:59:08;33.43;;;16.90;;
4434;SDS011;46552;52.150;8.428;2022-12-08T06:01:35;28.80;;;16.60;;
4434;SDS011;46552;52.150;8.428;2022-12-08T06:04:03;26.70;;;15.80;;
4434;SDS011;46552;52.150;8.428;2022-12-08T06:06:30;33.03;;;18.07;;
4434;SDS011;46552;52.150;8.428;2022-12-08T06:09:00;34.77;;;16.10;;
4434;SDS011;46552;52.150;8.428;2022-12-08T06:11:30;33.27;;;17.17;;
4434;SDS011;46552;52.150;8.428;2022-12-08T06:13:58;30.27;;;17.43;;
4434;SDS011;46552;52.150;8.428;2022-12-08T06:16:27;29.63;;;16.00;;
4434;SDS011;46552;52.150;8.428;2022-12-08T06:18:55;30.57;;;17.00;;
4434;SDS011;46552;52.150;8.428;2022-12-08T06:21:23;33.20;;;16.57;;
4434;SDS011;46552;52.150;8.428;2022-12-08T06:23:50;28.90;;;16.47;;
4434;SDS011;46552;52.150;8.428;2022-12-08T06:26:18;32.80;;;19.93;;
4434;SDS011;46552;52.150;8.428;2022-12-08T06:28:49;31.90;;;18.87;;
4434;SDS011;46552;52.150;8.428;2022-12-08T06:31:17;30.77;;;17.77;;
4434;SDS011;46552;52.150;8.428;2022-12-08T06:33:46;38.27;;;18.97;;
4434;SDS011;46552;52.150;8.428;2022-12-08T06:36:14;38.60;;;19.90;;
4434;SDS011;46552;52.150;8.428;2022-12-08T06:38:44;38.90;;;18.67;;
4434;SDS011;46552;52.150;8.428;2022-12-08T06:41:11;40.30;;;20.30;;
4434;SDS011;46552;52.150;8.428;2022-12-08T06:43:41;26.57;;;17.13;;
4434;SDS011;46552;52.150;8.428;2022-12-08T06:46:12;29.20;;;18.10;;
4434;SDS011;46552;52.150;8.428;2022-12-08T06:48:40;41.60;;;17.23;;
4434;SDS011;46552;52.150;8.428;2022-12-08T06:51:09;34.63;;;19.53;;
4434;SDS011;46552;52.150;8.428;2022-12-08T06:53:38;33.70;;;18.20;;
4434;SDS011;46552;52.150;8.428;2022-12-08T06:56:07;33.33;;;19.37;;
4434;SDS011;46552;52.150;8.428;2022-12-08T06:58:34;27.30;;;17.13;;
4434;SDS011;46552;52.150;8.428;2022-12-08T07:01:03;40.83;;;16.87;;
4434;SDS011;46552;52.150;8.428;2022-12-08T07:03:33;31.50;;;17.50;;
4434;SDS011;46552;52.150;8.428;2022-12-08T07:06:01;27.93;;;16.53;;
4434;SDS011;46552;52.150;8.428;2022-12-08T07:08:29;28.10;;;16.23;;
4434;SDS011;46552;52.150;8.428;2022-12-08T07:10:56;26.70;;;15.80;;
4434;SDS011;46552;52.150;8.428;2022-12-08T07:13:23;27.20;;;15.87;;
4434;SDS011;46552;52.150;8.428;2022-12-08T07:15:50;27.77;;;16.03;;
4434;SDS011;46552;52.150;8.428;2022-12-08T07:18:17;28.47;;;16.43;;
4434;SDS011;46552;52.150;8.428;2022-12-08T07:20:47;21.27;;;14.27;;
4434;SDS011;46552;52.150;8.428;2022-12-08T07:23:14;30.23;;;15.07;;
4434;SDS011;46552;52.150;8.428;2022-12-08T07:25:41;24.53;;;14.40;;
4434;SDS011;46552;52.150;8.428;2022-12-08T07:28:08;27.60;;;15.97;;
4434;SDS011;46552;52.150;8.428;2022-12-08T07:30:36;23.83;;;14.63;;
4434;SDS011;46552;52.150;8.428;2022-12-08T07:33:03;24.10;;;13.67;;
4434;SDS011;46552;52.150;8.428;2022-12-08T07:35:31;20.53;;;11.93;;
4434;SDS011;46552;52.150;8.428;2022-12-08T07:37:59;22.20;;;10.90;;
4434;SDS011;46552;52.150;8.428;2022-12-08T07:40:26;20.33;;;11.87;;
4434;SDS011;46552;52.150;8.428;2022-12-08T07:42:53;19.37;;;12.23;;
4434;SDS011;46552;52.150;8.428;2022-12-08T07:45:21;30.03;;;13.73;;
4434;SDS011;46552;52.150;8.428;2022-12-08T07:47:49;18.53;;;11.37;;
4434;SDS011;46552;52.150;8.428;2022-12-08T07:50:17;21.07;;;12.23;;
4434;SDS011;46552;52.150;8.428;2022-12-08T07:52:44;18.23;;;12.30;;
4434;SDS011;46552;52.150;8.428;2022-12-08T07:55:13;21.30;;;12.53;;
4434;SDS011;46552;52.150;8.428;2022-12-08T07:57:40;23.83;;;12.67;;
4434;SDS011;46552;52.150;8.428;2022-12-08T08:00:09;22.70;;;12.17;;
4434;SDS011;46552;52.150;8.428;2022-12-08T08:02:36;23.93;;;12.77;;
4434;SDS011;46552;52.150;8.428;2022-12-08T08:05:04;24.07;;;13.70;;
4434;SDS011;46552;52.150;8.428;2022-12-08T08:07:31;22.00;;;13.50;;
4434;SDS011;46552;52.150;8.428;2022-12-08T08:09:58;25.50;;;13.50;;
4434;SDS011;46552;52.150;8.428;2022-12-08T08:12:28;25.77;;;15.07;;
4434;SDS011;46552;52.150;8.428;2022-12-08T08:14:55;24.50;;;13.50;;
4434;SDS011;46552;52.150;8.428;2022-12-08T08:17:23;26.53;;;14.63;;
4434;SDS011;46552;52.150;8.428;2022-12-08T08:19:51;27.47;;;15.13;;
4434;SDS011;46552;52.150;8.428;2022-12-08T08:22:18;25.13;;;14.70;;
4434;SDS011;46552;52.150;8.428;2022-12-08T08:24:46;24.73;;;14.13;;
4434;SDS011;46552;52.150;8.428;2022-12-08T08:27:13;24.67;;;12.90;;
4434;SDS011;46552;52.150;8.428;2022-12-08T08:29:41;23.93;;;14.97;;
4434;SDS011;46552;52.150;8.428;2022-12-08T08:32:08;21.53;;;12.77;;
4434;SDS011;46552;52.150;8.428;2022-12-08T08:34:36;25.57;;;14.27;;
4434;SDS011;46552;52.150;8.428;2022-12-08T08:37:03;21.20;;;13.50;;
4434;SDS011;46552;52.150;8.428;2022-12-08T08:39:30;27.17;;;15.10;;
4434;SDS011;46552;52.150;8.428;2022-12-08T08:41:57;25.83;;;13.07;;
4434;SDS011;46552;52.150;8.428;2022-12-08T08:44:24;23.70;;;13.30;;
4434;SDS011;46552;52.150;8.428;2022-12-08T08:46:53;22.03;;;13.47;;
4434;SDS011;46552;52.150;8.428;2022-12-08T08:49:20;22.33;;;13.40;;
4434;SDS011;46552;52.150;8.428;2022-12-08T08:51:48;25.57;;;13.47;;
4434;SDS011;46552;52.150;8.428;2022-12-08T08:54:15;25.10;;;12.23;;
4434;SDS011;46552;52.150;8.428;2022-12-08T08:56:42;21.90;;;13.27;;
4434;SDS011;46552;52.150;8.428;2022-12-08T08:59:10;24.23;;;13.30;;
4434;SDS011;46552;52.150;8.428;2022-12-08T09:01:37;23.47;;;12.57;;
4434;SDS011;46552;52.150;8.428;2022-12-08T09:04:06;24.27;;;13.37;;
4434;SDS011;46552;52.150;8.428;2022-12-08T09:06:34;18.70;;;12.60;;
4434;SDS011;46552;52.150;8.428;2022-12-08T09:09:02;24.57;;;13.10;;
4434;SDS011;46552;52.150;8.428;2022-12-08T09:11:29;22.67;;;13.73;;
4434;SDS011;46552;52.150;8.428;2022-12-08T09:13:57;21.23;;;11.77;;
4434;SDS011;46552;52.150;8.428;2022-12-08T09:16:24;17.07;;;9.80;;
4434;SDS011;46552;52.150;8.428;2022-12-08T09:18:52;17.43;;;10.53;;
4434;SDS011;46552;52.150;8.428;2022-12-08T09:21:21;22.20;;;11.27;;
4434;SDS011;46552;52.150;8.428;2022-12-08T09:23:50;20.27;;;11.17;;
4434;SDS011;46552;52.150;8.428;2022-12-08T09:26:18;18.57;;;10.43;;
4434;SDS011;46552;52.150;8.428;2022-12-08T09:28:47;18.80;;;10.27;;
4434;SDS011;46552;52.150;8.428;2022-12-08T09:31:15;16.43;;;9.70;;
4434;SDS011;46552;52.150;8.428;2022-12-08T09:33:43;17.10;;;9.57;;
4434;SDS011;46552;52.150;8.428;2022-12-08T09:36:11;15.60;;;9.50;;
4434;SDS011;46552;52.150;8.428;2022-12-08T09:38:41;15.33;;;8.27;;
4434;SDS011;46552;52.150;8.428;2022-12-08T09:41:11;16.90;;;9.87;;
4434;SDS011;46552;52.150;8.428;2022-12-08T09:43:44;16.37;;;9.83;;
4434;SDS011;46552;52.150;8.428;2022-12-08T09:46:24;14.73;;;8.40;;
4434;SDS011;46552;52.150;8.428;2022-12-08T09:48:55;14.83;;;8.53;;
4434;SDS011;46552;52.150;8.428;2022-12-08T09:51:25;17.93;;;10.10;;
4434;SDS011;46552;52.150;8.428;2022-12-08T09:53:59;16.87;;;9.43;;
4434;SDS011;46552;52.150;8.428;2022-12-08T09:56:29;19.40;;;9.90;;
4434;SDS011;46552;52.150;8.428;2022-12-08T09:59:01;16.80;;;10.03;;
4434;SDS011;46552;52.150;8.428;2022-12-08T10:01:31;16.37;;;9.10;;
4434;SDS011;46552;52.150;8.428;2022-12-08T10:04:02;24.23;;;9.50;;
4434;SDS011;46552;52.150;8.428;2022-12-08T10:06:30;16.70;;;9.97;;
4434;SDS011;46552;52.150;8.428;2022-12-08T10:09:05;18.33;;;9.90;;
4434;SDS011;46552;52.150;8.428;2022-12-08T10:11:44;18.27;;;9.87;;
4434;SDS011;46552;52.150;8.428;2022-12-08T10:14:20;15.60;;;8.97;;
4434;SDS011;46552;52.150;8.428;2022-12-08T10:16:55;18.40;;;10.43;;
4434;SDS011;46552;52.150;8.428;2022-12-08T10:19:28;18.90;;;10.67;;
4434;SDS011;46552;52.150;8.428;2022-12-08T10:21:56;16.77;;;9.90;;
4434;SDS011;46552;52.150;8.428;2022-12-08T10:24:26;15.60;;;10.27;;
4434;SDS011;46552;52.150;8.428;2022-12-08T10:26:58;19.73;;;10.77;;
4434;SDS011;46552;52.150;8.428;2022-12-08T10:29:26;20.33;;;11.40;;
4434;SDS011;46552;52.150;8.428;2022-12-08T10:31:54;21.73;;;10.87;;
4434;SDS011;46552;52.150;8.428;2022-12-08T10:34:24;15.70;;;9.13;;
4434;SDS011;46552;52.150;8.428;2022-12-08T10:36:52;16.73;;;10.10;;
4434;SDS011;46552;52.150;8.428;2022-12-08T10:39:33;15.23;;;9.27;;
4434;SDS011;46552;52.150;8.428;2022-12-08T10:42:06;14.57;;;9.80;;
4434;SDS011;46552;52.150;8.428;2022-12-08T10:44:49;17.63;;;8.93;;
4434;SDS011;46552;52.150;8.428;2022-12-08T10:47:19;14.33;;;9.00;;
4434;SDS011;46552;52.150;8.428;2022-12-08T10:49:48;15.03;;;7.97;;
4434;SDS011;46552;52.150;8.428;2022-12-08T10:52:39;13.97;;;9.07;;
4434;SDS011;46552;52.150;8.428;2022-12-08T10:55:13;14.10;;;8.60;;
4434;SDS011;46552;52.150;8.428;2022-12-08T10:57:42;14.20;;;9.40;;
4434;SDS011;46552;52.150;8.428;2022-12-08T11:00:11;19.83;;;8.30;;
4434;SDS011;46552;52.150;8.428;2022-12-08T11:02:48;13.97;;;8.27;;
4434;SDS011;46552;52.150;8.428;2022-12-08T11:05:18;14.67;;;8.30;;
4434;SDS011;46552;52.150;8.428;2022-12-08T11:07:48;13.93;;;8.07;;
4434;SDS011;46552;52.150;8.428;2022-12-08T11:10:18;13.87;;;7.43;;
4434;SDS011;46552;52.150;8.428;2022-12-08T11:12:50;18.00;;;8.93;;
4434;SDS011;46552;52.150;8.428;2022-12-08T11:15:19;13.03;;;8.23;;
4434;SDS011;46552;52.150;8.428;2022-12-08T11:17:47;12.03;;;7.57;;
4434;SDS011;46552;52.150;8.428;2022-12-08T11:20:27;12.10;;;7.43;;
4434;SDS011;46552;52.150;8.428;2022-12-08T11:23:02;11.00;;;6.70;;
4434;SDS011;46552;52.150;8.428;2022-12-08T11:25:31;17.30;;;7.30;;
4434;SDS011;46552;52.150;8.428;2022-12-08T11:27:59;11.47;;;6.40;;
4434;SDS011;46552;52.150;8.428;2022-12-08T11:30:28;10.23;;;6.50;;
4434;SDS011;46552;52.150;8.428;2022-12-08T11:32:59;15.50;;;8.10;;
4434;SDS011;46552;52.150;8.428;2022-12-08T11:35:29;10.07;;;7.03;;
4434;SDS011;46552;52.150;8.428;2022-12-08T11:38:02;14.33;;;6.90;;
4434;SDS011;46552;52.150;8.428;2022-12-08T11:40:34;12.50;;;7.40;;
4434;SDS011;46552;52.150;8.428;2022-12-08T11:43:05;14.20;;;8.07;;
4434;SDS011;46552;52.150;8.428;2022-12-08T11:45:40;13.97;;;7.63;;
4434;SDS011;46552;52.150;8.428;2022-12-08T11:48:10;13.77;;;7.00;;
4434;SDS011;46552;52.150;8.428;2022-12-08T11:50:42;16.50;;;7.83;;
4434;SDS011;46552;52.150;8.428;2022-12-08T11:53:14;10.77;;;6.73;;
4434;SDS011;46552;52.150;8.428;2022-12-08T11:55:51;12.40;;;8.20;;
4434;SDS011;46552;52.150;8.428;2022-12-08T11:58:23;12.27;;;6.87;;
4434;SDS011;46552;52.150;8.428;2022-12-08T12:00:57;13.43;;;8.47;;
4434;SDS011;46552;52.150;8.428;2022-12-08T12:03:26;13.93;;;8.77;;
4434;SDS011;46552;52.150;8.428;2022-12-08T12:08:55;11.23;;;7.63;;
4434;SDS011;46552;52.150;8.428;2022-12-08T12:11:32;14.50;;;7.43;;
4434;SDS011;46552;52.150;8.428;2022-12-08T12:14:31;11.43;;;6.03;;
4434;SDS011;46552;52.150;8.428;2022-12-08T12:17:19;12.70;;;6.67;;
4434;SDS011;46552;52.150;8.428;2022-12-08T12:19:56;19.83;;;6.17;;
4434;SDS011;46552;52.150;8.428;2022-12-08T12:22:29;8.67;;;5.20;;
4434;SDS011;46552;52.150;8.428;2022-12-08T12:25:00;11.63;;;5.80;;
4434;SDS011;46552;52.150;8.428;2022-12-08T12:27:31;12.67;;;5.10;;
4434;SDS011;46552;52.150;8.428;2022-12-08T12:30:05;11.53;;;5.10;;
4434;SDS011;46552;52.150;8.428;2022-12-08T12:32:42;9.93;;;4.07;;
4434;SDS011;46552;52.150;8.428;2022-12-08T12:35:14;10.80;;;4.73;;
4434;SDS011;46552;52.150;8.428;2022-12-08T12:37:53;9.37;;;4.17;;
4434;SDS011;46552;52.150;8.428;2022-12-08T12:40:25;7.23;;;4.20;;
4434;SDS011;46552;52.150;8.428;2022-12-08T12:43:23;10.93;;;5.23;;
4434;SDS011;46552;52.150;8.428;2022-12-08T12:48:54;10.10;;;5.23;;
4434;SDS011;46552;52.150;8.428;2022-12-08T12:51:59;7.70;;;4.50;;
4434;SDS011;46552;52.150;8.428;2022-12-08T12:54:27;7.93;;;5.60;;
4434;SDS011;46552;52.150;8.428;2022-12-08T12:56:56;11.97;;;5.47;;
4434;SDS011;46552;52.150;8.428;2022-12-08T12:59:44;8.57;;;5.10;;
4434;SDS011;46552;52.150;8.428;2022-12-08T13:02:15;8.50;;;4.73;;
4434;SDS011;46552;52.150;8.428;2022-12-08T13:04:51;10.23;;;4.50;;
4434;SDS011;46552;52.150;8.428;2022-12-08T13:07:33;10.13;;;5.00;;
4434;SDS011;46552;52.150;8.428;2022-12-08T13:10:10;13.47;;;5.80;;
4434;SDS011;46552;52.150;8.428;2022-12-08T13:12:42;8.87;;;5.40;;
4434;SDS011;46552;52.150;8.428;2022-12-08T13:15:15;11.40;;;6.20;;
4434;SDS011;46552;52.150;8.428;2022-12-08T13:17:44;9.47;;;5.37;;
4434;SDS011;46552;52.150;8.428;2022-12-08T13:20:17;9.50;;;5.27;;
4434;SDS011;46552;52.150;8.428;2022-12-08T13:23:10;7.97;;;5.27;;
4434;SDS011;46552;52.150;8.428;2022-12-08T13:25:50;17.93;;;5.50;;
4434;SDS011;46552;52.150;8.428;2022-12-08T13:28:33;8.83;;;5.20;;
4434;SDS011;46552;52.150;8.428;2022-12-08T13:34:05;11.20;;;5.67;;
4434;SDS011;46552;52.150;8.428;2022-12-08T13:36:38;8.67;;;5.00;;
4434;SDS011;46552;52.150;8.428;2022-12-08T13:39:09;10.47;;;5.80;;
4434;SDS011;46552;52.150;8.428;2022-12-08T13:41:47;8.93;;;5.53;;
4434;SDS011;46552;52.150;8.428;2022-12-08T13:44:25;12.83;;;6.67;;
4434;SDS011;46552;52.150;8.428;2022-12-08T13:46:59;12.53;;;7.03;;
4434;SDS011;46552;52.150;8.428;2022-12-08T13:49:28;10.90;;;6.63;;
4434;SDS011;46552;52.150;8.428;2022-12-08T13:51:59;11.10;;;7.70;;
4434;SDS011;46552;52.150;8.428;2022-12-08T13:54:29;14.73;;;6.67;;
4434;SDS011;46552;52.150;8.428;2022-12-08T13:57:00;11.27;;;6.57;;
4434;SDS011;46552;52.150;8.428;2022-12-08T13:59:32;15.40;;;6.80;;
4434;SDS011;46552;52.150;8.428;2022-12-08T14:02:02;11.43;;;6.40;;
4434;SDS011;46552;52.150;8.428;2022-12-08T14:04:42;12.80;;;6.30;;
4434;SDS011;46552;52.150;8.428;2022-12-08T14:07:11;14.13;;;7.53;;
4434;SDS011;46552;52.150;8.428;2022-12-08T14:09:39;14.50;;;7.97;;
4434;SDS011;46552;52.150;8.428;2022-12-08T14:12:07;12.10;;;6.50;;
4434;SDS011;46552;52.150;8.428;2022-12-08T14:14:44;18.50;;;8.03;;
4434;SDS011;46552;52.150;8.428;2022-12-08T14:17:14;12.50;;;7.97;;
4434;SDS011;46552;52.150;8.428;2022-12-08T14:19:43;16.67;;;9.33;;
4434;SDS011;46552;52.150;8.428;2022-12-08T14:22:19;15.87;;;9.40;;
4434;SDS011;46552;52.150;8.428;2022-12-08T14:24:47;13.23;;;7.30;;
4434;SDS011;46552;52.150;8.428;2022-12-08T14:27:16;18.50;;;7.63;;
4434;SDS011;46552;52.150;8.428;2022-12-08T14:29:46;15.80;;;8.30;;
4434;SDS011;46552;52.150;8.428;2022-12-08T14:32:22;15.23;;;8.00;;
4434;SDS011;46552;52.150;8.428;2022-12-08T14:34:52;12.47;;;7.17;;
4434;SDS011;46552;52.150;8.428;2022-12-08T14:37:20;14.97;;;7.73;;
4434;SDS011;46552;52.150;8.428;2022-12-08T14:39:48;14.13;;;6.53;;
4434;SDS011;46552;52.150;8.428;2022-12-08T14:42:19;12.50;;;6.77;;
4434;SDS011;46552;52.150;8.428;2022-12-08T14:44:54;12.87;;;7.20;;
4434;SDS011;46552;52.150;8.428;2022-12-08T14:47:28;12.90;;;7.37;;
4434;SDS011;46552;52.150;8.428;2022-12-08T14:49:57;11.73;;;6.77;;
4434;SDS011;46552;52.150;8.428;2022-12-08T14:52:24;12.17;;;7.53;;
4434;SDS011;46552;52.150;8.428;2022-12-08T14:54:52;22.00;;;7.17;;
4434;SDS011;46552;52.150;8.428;2022-12-08T14:57:20;10.57;;;6.50;;
4434;SDS011;46552;52.150;8.428;2022-12-08T14:59:48;20.40;;;6.60;;
4434;SDS011;46552;52.150;8.428;2022-12-08T15:02:21;13.27;;;6.60;;
4434;SDS011;46552;52.150;8.428;2022-12-08T15:04:57;14.47;;;7.20;;
4434;SDS011;46552;52.150;8.428;2022-12-08T15:07:28;11.90;;;5.97;;
4434;SDS011;46552;52.150;8.428;2022-12-08T15:15:47;14.90;;;5.90;;
4434;SDS011;46552;52.150;8.428;2022-12-08T15:18:16;10.13;;;5.90;;
4434;SDS011;46552;52.150;8.428;2022-12-08T15:20:47;11.13;;;6.33;;